createdAt,value
2023-05-10T00:00:16.138Z,50.45
2023-05-10T00:02:45.137Z,50.35
2023-05-10T00:05:12.971Z,50.55
2023-05-10T00:07:45.627Z,50.61
2023-05-10T00:10:14.145Z,50.61
2023-05-10T00:12:42.228Z,50.41
2023-05-10T00:15:10.949Z,50.46
2023-05-10T00:17:38.902Z,50.54
2023-05-10T00:20:07.758Z,50.57
2023-05-10T00:22:35.743Z,50.54
2023-05-10T00:25:05.485Z,50.65
2023-05-10T00:27:33.292Z,50.54
2023-05-10T00:30:01.213Z,50.61
2023-05-10T00:32:29.093Z,50.47
2023-05-10T00:34:57.394Z,50.71
2023-05-10T00:37:25.211Z,50.95
2023-05-10T00:39:53.086Z,50.58
2023-05-10T00:42:22.350Z,50.99
2023-05-10T00:44:50.672Z,50.64
2023-05-10T00:47:18.789Z,50.80
2023-05-10T00:49:47.707Z,50.62
2023-05-10T00:52:16.202Z,50.63
2023-05-10T00:54:44.164Z,50.73
2023-05-10T00:57:12.686Z,50.66
2023-05-10T00:59:41.825Z,50.69
2023-05-10T01:02:09.642Z,50.63
2023-05-10T01:04:38.125Z,50.55
2023-05-10T01:07:06.016Z,50.92
2023-05-10T01:09:34.843Z,50.77
2023-05-10T01:12:04.482Z,51.05
2023-05-10T01:14:32.434Z,50.67
2023-05-10T01:17:02.285Z,50.73
2023-05-10T01:19:32.380Z,50.83
2023-05-10T01:22:08.003Z,50.87
2023-05-10T01:25:01.710Z,50.96
2023-05-10T01:27:57.602Z,50.88
2023-05-10T01:31:00.139Z,50.89
2023-05-10T01:33:33.895Z,50.83
2023-05-10T01:36:05.191Z,50.95
2023-05-10T01:38:43.863Z,51.00
2023-05-10T01:41:18.514Z,51.15
2023-05-10T01:43:55.817Z,50.96
2023-05-10T01:46:29.579Z,51.04
2023-05-10T01:49:02.537Z,51.10
2023-05-10T01:51:40.939Z,51.19
2023-05-10T01:54:11.732Z,51.18
2023-05-10T01:56:42.490Z,51.15
2023-05-10T01:59:15.002Z,51.37
2023-05-10T02:01:44.981Z,51.28
2023-05-10T02:04:18.675Z,51.35
2023-05-10T02:06:48.948Z,51.18
2023-05-10T02:09:17.756Z,51.30
2023-05-10T02:11:46.187Z,51.36
2023-05-10T02:14:15.164Z,51.22
2023-05-10T02:16:44.240Z,51.46
2023-05-10T02:19:14.235Z,51.46
2023-05-10T02:21:43.560Z,51.41
2023-05-10T02:24:13.418Z,51.63
2023-05-10T02:26:42.611Z,51.63
2023-05-10T02:29:13.219Z,51.38
2023-05-10T02:31:44.441Z,51.52
2023-05-10T02:34:14.964Z,51.61
2023-05-10T02:36:44.422Z,51.48
2023-05-10T02:39:14.502Z,51.67
2023-05-10T02:41:43.080Z,51.70
2023-05-10T02:44:12.206Z,51.59
2023-05-10T02:46:40.182Z,51.58
2023-05-10T02:49:08.996Z,51.64
2023-05-10T02:51:42.952Z,51.74
2023-05-10T02:54:14.516Z,51.87
2023-05-10T02:56:49.085Z,51.92
2023-05-10T02:59:16.937Z,51.83
2023-05-10T03:01:44.970Z,51.90
2023-05-10T03:04:14.243Z,52.07
2023-05-10T03:06:43.909Z,51.91
2023-05-10T03:09:16.141Z,52.01
2023-05-10T03:11:52.464Z,52.04
2023-05-10T03:14:36.736Z,52.24
2023-05-10T03:17:12.287Z,52.07
2023-05-10T03:19:50.748Z,51.90
2023-05-10T03:22:26.518Z,52.44
2023-05-10T03:24:57.599Z,52.26
2023-05-10T03:27:28.945Z,52.18
2023-05-10T03:29:58.568Z,52.51
2023-05-10T03:32:28.088Z,52.25
2023-05-10T03:34:56.025Z,52.18
2023-05-10T03:37:26.408Z,52.62
2023-05-10T03:39:54.340Z,52.64
2023-05-10T03:42:22.212Z,52.71
2023-05-10T03:44:50.438Z,52.84
2023-05-10T03:47:18.802Z,52.84
2023-05-10T03:49:47.127Z,52.77
2023-05-10T03:52:15.112Z,52.87
2023-05-10T03:54:44.309Z,53.18
2023-05-10T03:57:12.064Z,53.06
2023-05-10T03:59:39.852Z,52.96
2023-05-10T04:02:08.207Z,53.29
2023-05-10T04:04:37.617Z,53.60
2023-05-10T04:07:05.492Z,53.45
2023-05-10T04:09:33.604Z,53.80
2023-05-10T04:12:03.309Z,53.66
2023-05-10T04:14:31.105Z,53.79
2023-05-10T04:16:58.962Z,54.14
2023-05-10T04:19:30.722Z,54.29
2023-05-10T04:21:58.656Z,54.14
2023-05-10T04:24:26.587Z,54.74
2023-05-10T04:26:57.669Z,54.66
2023-05-10T04:29:27.618Z,54.66
2023-05-10T04:31:55.461Z,54.66
2023-05-10T04:34:23.402Z,54.97
2023-05-10T04:36:51.180Z,54.91
2023-05-10T04:39:19.086Z,55.29
2023-05-10T04:41:46.889Z,55.50
2023-05-10T04:44:14.691Z,55.84
2023-05-10T04:46:43.952Z,56.01
2023-05-10T04:49:11.805Z,56.03
2023-05-10T04:51:39.650Z,56.11
2023-05-10T04:54:07.432Z,56.45
2023-05-10T04:56:35.292Z,56.56
2023-05-10T04:59:03.598Z,56.84
2023-05-10T05:01:31.520Z,56.85
2023-05-10T05:04:00.854Z,57.17
2023-05-10T05:06:28.680Z,57.59
2023-05-10T05:08:56.488Z,57.88
2023-05-10T05:11:24.302Z,57.70
2023-05-10T05:13:52.073Z,58.26
2023-05-10T05:16:19.928Z,58.05
2023-05-10T05:18:47.867Z,58.59
2023-05-10T05:21:17.925Z,58.56
2023-05-10T05:23:45.845Z,58.75
2023-05-10T05:26:13.698Z,59.15
2023-05-10T05:28:41.517Z,59.05
2023-05-10T05:31:10.188Z,59.43
2023-05-10T05:33:38.684Z,59.87
2023-05-10T05:36:07.701Z,59.76
2023-05-10T05:38:36.920Z,60.25
2023-05-10T05:41:04.720Z,60.31
2023-05-10T05:43:32.509Z,60.53
2023-05-10T05:46:00.353Z,60.60
2023-05-10T05:48:28.355Z,61.07
2023-05-10T05:50:59.708Z,61.46
2023-05-10T05:53:27.564Z,61.63
2023-05-10T05:55:58.197Z,61.84
2023-05-10T05:58:26.327Z,61.88
2023-05-10T06:00:54.332Z,61.89
2023-05-10T06:03:22.334Z,62.18
2023-05-10T06:05:50.302Z,62.46
2023-05-10T06:08:18.239Z,62.50
2023-05-10T06:10:46.421Z,62.91
2023-05-10T06:13:15.732Z,63.33
2023-05-10T06:15:43.551Z,63.47
2023-05-10T06:18:11.348Z,63.70
2023-05-10T06:20:39.126Z,63.68
2023-05-10T06:23:06.971Z,63.70
2023-05-10T06:25:34.825Z,63.97
2023-05-10T06:28:02.967Z,64.28
2023-05-10T06:30:32.129Z,64.45
2023-05-10T06:33:00.309Z,64.69
2023-05-10T06:35:28.224Z,65.07
2023-05-10T06:37:56.372Z,65.19
2023-05-10T06:40:24.192Z,65.25
2023-05-10T06:42:52.282Z,65.52
2023-05-10T06:45:20.222Z,65.96
2023-05-10T06:47:49.674Z,66.01
2023-05-10T06:50:17.579Z,66.12
2023-05-10T06:52:45.431Z,66.30
2023-05-10T06:55:13.522Z,66.54
2023-05-10T06:57:41.360Z,66.62
2023-05-10T07:00:10.699Z,66.98
2023-05-10T07:02:38.676Z,67.18
2023-05-10T07:05:08.737Z,67.49
2023-05-10T07:07:36.640Z,67.64
2023-05-10T07:10:04.679Z,67.81
2023-05-10T07:12:32.788Z,67.86
2023-05-10T07:15:00.658Z,68.01
2023-05-10T07:17:28.573Z,68.32
2023-05-10T07:19:56.492Z,68.47
2023-05-10T07:22:25.732Z,68.66
2023-05-10T07:24:53.615Z,68.76
2023-05-10T07:27:21.507Z,68.91
2023-05-10T07:29:49.545Z,69.14
2023-05-10T07:32:17.406Z,69.19
2023-05-10T07:34:45.300Z,69.28
2023-05-10T07:37:13.321Z,69.53
2023-05-10T07:39:42.459Z,69.58
2023-05-10T07:42:10.362Z,69.72
2023-05-10T07:44:38.183Z,69.97
2023-05-10T07:47:06.181Z,70.04
2023-05-10T07:49:33.971Z,70.00
2023-05-10T07:52:01.717Z,70.29
2023-05-10T07:54:29.509Z,70.40
2023-05-10T07:56:58.642Z,70.56
2023-05-10T07:59:26.450Z,70.51
2023-05-10T08:01:54.239Z,70.72
2023-05-10T08:04:22.187Z,70.91
2023-05-10T08:06:50.007Z,70.99
2023-05-10T08:09:18.795Z,71.26
2023-05-10T08:11:46.607Z,71.28
2023-05-10T08:14:15.776Z,71.30
2023-05-10T08:16:43.533Z,71.45
2023-05-10T08:19:11.471Z,71.44
2023-05-10T08:21:39.274Z,71.43
2023-05-10T08:24:07.690Z,71.62
2023-05-10T08:26:35.835Z,71.66
2023-05-10T08:29:03.822Z,71.80
2023-05-10T08:31:32.982Z,72.03
2023-05-10T08:34:01.268Z,72.00
2023-05-10T08:36:29.297Z,72.13
2023-05-10T08:38:57.069Z,72.09
2023-05-10T08:41:26.519Z,72.11
2023-05-10T08:43:55.102Z,72.33
2023-05-10T08:46:24.490Z,72.20
2023-05-10T08:48:55.632Z,72.53
2023-05-10T08:51:27.678Z,72.46
2023-05-10T08:53:56.207Z,72.54
2023-05-10T08:56:25.051Z,72.59
2023-05-10T08:58:53.232Z,72.46
2023-05-10T09:01:22.297Z,72.75
2023-05-10T09:03:52.850Z,72.75
2023-05-10T09:06:27.436Z,72.53
2023-05-10T09:08:55.443Z,72.70
2023-05-10T09:11:23.458Z,72.81
2023-05-10T09:13:52.988Z,73.03
2023-05-10T09:16:22.325Z,72.89
2023-05-10T09:18:51.283Z,73.03
2023-05-10T09:21:21.704Z,73.05
2023-05-10T09:23:51.027Z,73.22
2023-05-10T09:26:19.174Z,73.12
2023-05-10T09:28:53.781Z,73.00
2023-05-10T09:31:22.089Z,73.00
2023-05-10T09:33:51.690Z,72.96
2023-05-10T09:36:20.910Z,73.02
2023-05-10T09:38:49.879Z,72.96
2023-05-10T09:41:19.088Z,72.98
2023-05-10T09:43:46.895Z,73.22
2023-05-10T09:46:14.895Z,72.85
2023-05-10T09:48:45.410Z,73.05
2023-05-10T09:51:20.431Z,72.95
2023-05-10T09:53:51.503Z,73.18
2023-05-10T09:56:38.569Z,72.93
2023-05-10T09:59:07.324Z,72.85
2023-05-10T10:01:35.912Z,73.02
2023-05-10T10:04:05.964Z,73.16
2023-05-10T10:06:38.837Z,72.96
2023-05-10T10:09:09.422Z,72.97
2023-05-10T10:11:38.189Z,72.96
2023-05-10T10:14:09.000Z,72.98
2023-05-10T10:16:37.603Z,73.05
2023-05-10T10:19:09.949Z,72.78
2023-05-10T10:21:37.754Z,72.74
2023-05-10T10:24:06.748Z,72.85
2023-05-10T10:26:39.257Z,73.09
2023-05-10T10:29:12.602Z,72.60
2023-05-10T10:31:47.190Z,72.88
2023-05-10T10:34:27.238Z,72.73
2023-05-10T10:36:57.207Z,72.64
2023-05-10T10:39:26.491Z,72.88
2023-05-10T10:41:57.174Z,72.83
2023-05-10T10:44:36.486Z,72.48
2023-05-10T10:47:25.640Z,72.61
2023-05-10T10:50:04.755Z,72.39
2023-05-10T10:52:35.116Z,72.51
2023-05-10T10:55:06.222Z,72.16
2023-05-10T10:57:45.520Z,72.13
2023-05-10T11:00:28.561Z,72.20
2023-05-10T11:02:59.835Z,72.12
2023-05-10T11:05:37.082Z,72.06
2023-05-10T11:08:14.254Z,72.22
2023-05-10T11:10:52.871Z,72.23
2023-05-10T11:13:31.312Z,72.03
2023-05-10T11:15:59.987Z,72.10
2023-05-10T11:18:29.483Z,71.88
2023-05-10T11:21:03.629Z,72.02
2023-05-10T11:23:32.570Z,72.14
2023-05-10T11:26:01.338Z,71.76
2023-05-10T11:28:30.932Z,71.93
2023-05-10T11:30:59.427Z,72.10
2023-05-10T11:33:27.309Z,71.84
2023-05-10T11:35:55.156Z,71.99
2023-05-10T11:38:22.936Z,71.75
2023-05-10T11:40:54.302Z,72.02
2023-05-10T11:43:29.114Z,71.99
2023-05-10T11:45:58.578Z,71.84
2023-05-10T11:48:26.409Z,71.74
2023-05-10T11:50:57.933Z,71.85
2023-05-10T11:53:28.282Z,71.70
2023-05-10T11:55:56.104Z,71.57
2023-05-10T11:58:24.363Z,71.52
2023-05-10T12:00:52.357Z,71.47
2023-05-10T12:03:21.872Z,71.63
2023-05-10T12:05:49.813Z,71.48
2023-05-10T12:08:21.855Z,71.50
2023-05-10T12:10:49.707Z,71.45
2023-05-10T12:13:17.581Z,71.18
2023-05-10T12:15:45.744Z,71.25
2023-05-10T12:18:14.572Z,71.17
2023-05-10T12:20:43.930Z,71.21
2023-05-10T12:23:12.001Z,71.17
2023-05-10T12:25:40.757Z,71.00
2023-05-10T12:28:10.511Z,71.01
2023-05-10T12:30:39.187Z,70.92
2023-05-10T12:33:10.940Z,70.85
2023-05-10T12:35:51.088Z,70.78
2023-05-10T12:38:31.872Z,70.73
2023-05-10T12:41:02.049Z,70.62
2023-05-10T12:43:30.310Z,70.77
2023-05-10T12:45:58.553Z,70.53
2023-05-10T12:48:26.934Z,70.44
2023-05-10T12:50:56.136Z,70.35
2023-05-10T12:53:23.903Z,70.37
2023-05-10T12:55:51.718Z,70.25
2023-05-10T12:58:34.445Z,70.12
2023-05-10T13:01:05.171Z,70.11
2023-05-10T13:03:33.168Z,70.01
2023-05-10T13:06:02.443Z,70.00
2023-05-10T13:08:34.151Z,69.82
2023-05-10T13:11:02.243Z,69.81
2023-05-10T13:13:30.233Z,69.81
2023-05-10T13:15:58.144Z,69.67
2023-05-10T13:18:27.381Z,69.61
2023-05-10T13:20:56.701Z,69.56
2023-05-10T13:23:25.962Z,69.47
2023-05-10T13:25:53.816Z,69.46
2023-05-10T13:28:21.611Z,69.50
2023-05-10T13:30:49.479Z,69.17
2023-05-10T13:33:17.323Z,69.03
2023-05-10T13:35:46.086Z,69.32
2023-05-10T13:38:14.729Z,68.89
2023-05-10T13:40:44.123Z,69.01
2023-05-10T13:43:12.158Z,69.04
2023-05-10T13:45:40.041Z,69.00
2023-05-10T13:48:07.999Z,68.74
2023-05-10T13:50:35.930Z,68.60
2023-05-10T13:53:03.766Z,68.88
2023-05-10T13:55:31.885Z,68.43
2023-05-10T13:58:01.131Z,68.53
2023-05-10T14:00:29.145Z,68.33
2023-05-10T14:02:57.125Z,68.23
2023-05-10T14:05:26.190Z,68.17
2023-05-10T14:07:54.800Z,68.02
2023-05-10T14:10:22.751Z,67.95
2023-05-10T14:12:51.330Z,67.86
2023-05-10T14:15:20.574Z,67.84
2023-05-10T14:17:48.859Z,67.64
2023-05-10T14:20:17.095Z,67.66
2023-05-10T14:22:44.884Z,67.64
2023-05-10T14:25:12.824Z,67.40
2023-05-10T14:27:40.720Z,67.43
2023-05-10T14:30:09.792Z,67.26
2023-05-10T14:32:39.140Z,67.31
2023-05-10T14:35:09.029Z,67.08
2023-05-10T14:37:38.656Z,67.04
2023-05-10T14:40:08.217Z,67.10
2023-05-10T14:42:36.221Z,67.15
2023-05-10T14:45:04.326Z,67.25
2023-05-10T14:47:32.286Z,67.05
2023-05-10T14:50:01.419Z,67.06
2023-05-10T14:52:29.287Z,66.98
2023-05-10T14:54:58.084Z,67.00
2023-05-10T14:57:25.858Z,66.94
2023-05-10T14:59:53.795Z,66.75
2023-05-10T15:02:22.480Z,66.96
2023-05-10T15:04:50.676Z,66.75
2023-05-10T15:07:20.178Z,67.05
2023-05-10T15:09:48.041Z,66.89
2023-05-10T15:12:15.871Z,66.93
2023-05-10T15:14:43.668Z,66.92
2023-05-10T15:17:12.167Z,66.92
2023-05-10T15:19:39.974Z,67.08
2023-05-10T15:22:07.848Z,67.22
2023-05-10T15:24:36.981Z,67.03
2023-05-10T15:27:04.916Z,66.98
2023-05-10T15:29:33.409Z,67.09
2023-05-10T15:32:03.207Z,67.12
2023-05-10T15:34:32.564Z,67.35
2023-05-10T15:37:01.707Z,66.99
2023-05-10T15:39:29.521Z,67.14
2023-05-10T15:41:58.706Z,67.07
2023-05-10T15:44:26.575Z,67.16
2023-05-10T15:46:54.435Z,67.21
2023-05-10T15:49:22.303Z,67.15
2023-05-10T15:51:50.115Z,67.09
2023-05-10T15:54:17.948Z,67.26
2023-05-10T15:56:45.721Z,67.25
2023-05-10T15:59:14.868Z,67.21
2023-05-10T16:01:42.808Z,67.17
2023-05-10T16:04:10.666Z,67.27
2023-05-10T16:06:38.890Z,67.35
2023-05-10T16:09:06.759Z,67.42
2023-05-10T16:11:34.687Z,67.36
2023-05-10T16:14:02.495Z,67.31
2023-05-10T16:16:32.143Z,67.27
2023-05-10T16:19:01.361Z,67.43
2023-05-10T16:21:29.585Z,67.09
2023-05-10T16:23:57.410Z,67.34
2023-05-10T16:26:25.253Z,67.27
2023-05-10T16:28:53.407Z,67.41
2023-05-10T16:31:21.256Z,67.40
2023-05-10T16:33:50.847Z,67.27
2023-05-10T16:36:18.650Z,67.26
2023-05-10T16:38:46.452Z,67.38
2023-05-10T16:41:14.219Z,67.20
2023-05-10T16:43:42.069Z,67.47
2023-05-10T16:46:12.973Z,67.28
2023-05-10T16:48:40.813Z,67.39
2023-05-10T16:51:10.197Z,67.44
2023-05-10T16:53:38.096Z,67.39
2023-05-10T16:56:06.163Z,67.46
2023-05-10T16:58:34.804Z,67.51
2023-05-10T17:01:02.805Z,67.55
2023-05-10T17:03:30.725Z,67.41
2023-05-10T17:05:59.032Z,67.31
2023-05-10T17:08:28.222Z,67.53
2023-05-10T17:10:56.280Z,67.26
2023-05-10T17:13:24.096Z,67.59
2023-05-10T17:15:52.047Z,67.50
2023-05-10T17:18:20.345Z,67.61
2023-05-10T17:20:48.517Z,67.37
2023-05-10T17:23:16.841Z,67.54
2023-05-10T17:25:46.051Z,67.62
2023-05-10T17:28:13.930Z,67.76
2023-05-10T17:30:41.705Z,67.71
2023-05-10T17:33:09.625Z,67.28
2023-05-10T17:35:37.679Z,67.61
2023-05-10T17:38:05.512Z,67.85
2023-05-10T17:40:33.367Z,67.67
2023-05-10T17:43:03.001Z,67.81
2023-05-10T17:45:31.050Z,67.94
2023-05-10T17:47:58.920Z,67.90
2023-05-10T17:50:26.798Z,67.76
2023-05-10T17:52:54.675Z,67.81
2023-05-10T17:55:22.497Z,67.87
2023-05-10T17:57:51.936Z,67.90
2023-05-10T18:00:21.872Z,67.81
2023-05-10T18:02:49.764Z,67.93
2023-05-10T18:05:18.047Z,68.09
2023-05-10T18:07:46.143Z,68.10
2023-05-10T18:10:14.036Z,68.13
2023-05-10T18:12:41.936Z,68.21
2023-05-10T18:15:10.401Z,68.18
2023-05-10T18:17:39.664Z,68.28
2023-05-10T18:20:08.718Z,68.31
2023-05-10T18:22:36.730Z,68.34
2023-05-10T18:25:04.972Z,68.51
2023-05-10T18:27:33.184Z,68.34
2023-05-10T18:30:00.968Z,68.50
2023-05-10T18:32:28.952Z,68.32
2023-05-10T18:34:58.647Z,68.58
2023-05-10T18:37:26.529Z,68.73
2023-05-10T18:39:54.547Z,68.75
2023-05-10T18:42:22.346Z,68.89
2023-05-10T18:44:50.399Z,68.78
2023-05-10T18:47:18.285Z,68.86
2023-05-10T18:49:46.242Z,68.93
2023-05-10T18:52:16.106Z,69.08
2023-05-10T18:54:44.011Z,69.11
2023-05-10T18:57:12.386Z,69.24
2023-05-10T18:59:40.538Z,69.28
2023-05-10T19:02:09.137Z,69.32
2023-05-10T19:04:37.276Z,69.36
2023-05-10T19:07:05.431Z,69.66
2023-05-10T19:09:34.715Z,69.40
2023-05-10T19:12:02.569Z,69.47
2023-05-10T19:14:30.469Z,69.56
2023-05-10T19:16:58.279Z,69.65
2023-05-10T19:19:26.219Z,69.76
2023-05-10T19:21:55.685Z,69.80
2023-05-10T19:24:25.577Z,69.84
2023-05-10T19:26:56.201Z,69.76
2023-05-10T19:29:24.232Z,69.99
2023-05-10T19:31:53.020Z,70.01
2023-05-10T19:34:21.220Z,70.15
2023-05-10T19:36:49.391Z,70.34
2023-05-10T19:39:17.415Z,70.25
2023-05-10T19:41:45.322Z,70.45
2023-05-10T19:44:14.965Z,70.55
2023-05-10T19:46:42.907Z,70.56
2023-05-10T19:49:10.837Z,70.56
2023-05-10T19:51:38.797Z,70.52
2023-05-10T19:54:07.206Z,70.79
2023-05-10T19:56:35.469Z,70.81
2023-05-10T19:59:03.959Z,70.82
2023-05-10T20:01:33.221Z,71.02
2023-05-10T20:04:01.290Z,71.06
2023-05-10T20:06:29.206Z,71.20
2023-05-10T20:08:57.013Z,71.24
2023-05-10T20:11:25.008Z,71.23
2023-05-10T20:13:52.968Z,71.42
2023-05-10T20:16:20.833Z,71.09
2023-05-10T20:18:50.706Z,71.59
2023-05-10T20:21:19.756Z,71.78
2023-05-10T20:23:47.595Z,71.79
2023-05-10T20:26:15.417Z,71.90
2023-05-10T20:28:43.343Z,71.97
2023-05-10T20:31:11.701Z,71.87
2023-05-10T20:33:39.611Z,72.10
2023-05-10T20:36:10.057Z,72.31
2023-05-10T20:38:37.962Z,72.36
2023-05-10T20:41:05.873Z,72.39
2023-05-10T20:43:33.763Z,72.55
2023-05-10T20:46:05.446Z,72.73
2023-05-10T20:48:34.069Z,72.61
2023-05-10T20:51:03.123Z,72.79
2023-05-10T20:53:32.701Z,72.91
2023-05-10T20:56:00.542Z,73.02
2023-05-10T20:58:28.427Z,73.17
2023-05-10T21:00:56.247Z,73.16
2023-05-10T21:03:24.110Z,73.34
2023-05-10T21:05:51.984Z,73.33
2023-05-10T21:08:19.932Z,73.29
2023-05-10T21:10:49.166Z,73.52
2023-05-10T21:13:17.312Z,73.60
2023-05-10T21:15:45.223Z,73.65
2023-05-10T21:18:13.044Z,73.90
2023-05-10T21:20:41.046Z,73.84
2023-05-10T21:23:08.880Z,73.86
2023-05-10T21:25:37.600Z,73.86
2023-05-10T21:28:06.895Z,74.06
2023-05-10T21:30:34.828Z,74.12
2023-05-10T21:33:03.709Z,74.43
2023-05-10T21:35:31.735Z,74.11
2023-05-10T21:37:59.603Z,74.40
2023-05-10T21:40:27.387Z,74.60
2023-05-10T21:42:55.371Z,74.83
2023-05-10T21:45:24.878Z,74.70
2023-05-10T21:47:52.829Z,74.58
2023-05-10T21:50:21.068Z,75.02
2023-05-10T21:52:48.935Z,74.84
2023-05-10T21:55:17.534Z,75.23
2023-05-10T21:57:45.671Z,75.09
2023-05-10T22:00:16.334Z,75.11
2023-05-10T22:06:36.334Z,75.21
2023-05-10T22:09:05.070Z,75.41
2023-05-10T22:11:32.914Z,75.80
2023-05-10T22:14:00.744Z,75.54
2023-05-10T22:16:28.867Z,75.67
2023-05-10T22:18:56.791Z,75.91
2023-05-10T22:21:24.651Z,75.94
2023-05-10T22:23:54.117Z,75.87
2023-05-10T22:26:22.116Z,76.02
2023-05-10T22:28:49.934Z,76.14
2023-05-10T22:31:17.837Z,76.01
2023-05-10T22:33:45.655Z,76.38
2023-05-10T22:36:15.120Z,76.09
2023-05-10T22:38:43.018Z,76.26
2023-05-10T22:41:12.254Z,76.17
2023-05-10T22:43:40.157Z,76.30
2023-05-10T22:46:08.010Z,76.59
2023-05-10T22:48:36.707Z,76.51
2023-05-10T22:51:04.695Z,76.83
2023-05-10T22:53:32.591Z,76.94
2023-05-10T22:56:00.532Z,77.00
2023-05-10T22:58:29.774Z,76.74
2023-05-10T23:00:57.645Z,77.31
2023-05-10T23:03:25.927Z,76.96
2023-05-10T23:05:53.720Z,77.11
2023-05-10T23:08:22.355Z,77.23
2023-05-10T23:10:50.172Z,77.34
2023-05-10T23:13:18.756Z,77.31
2023-05-10T23:15:48.238Z,77.54
2023-05-10T23:18:16.163Z,77.50
2023-05-10T23:20:44.300Z,77.66
2023-05-10T23:23:12.236Z,77.56
2023-05-10T23:25:40.083Z,77.86
2023-05-10T23:28:07.946Z,77.67
2023-05-10T23:30:35.744Z,77.74
2023-05-10T23:33:05.034Z,77.93
2023-05-10T23:35:32.879Z,77.88
2023-05-10T23:38:00.733Z,78.13
2023-05-10T23:40:28.835Z,78.00
2023-05-10T23:42:56.735Z,78.18
2023-05-10T23:45:24.612Z,78.18
2023-05-10T23:47:52.735Z,78.04
2023-05-10T23:50:22.069Z,78.43
2023-05-10T23:52:49.937Z,78.46
2023-05-10T23:55:17.953Z,78.50
2023-05-10T23:57:46.034Z,78.36
